createdAt,value
2022-10-24T00:01:13.715Z,37.95
2022-10-24T00:03:40.010Z,37.68
2022-10-24T00:06:06.345Z,37.67
2022-10-24T00:08:32.690Z,37.63
2022-10-24T00:10:59.021Z,37.65
2022-10-24T00:13:25.371Z,37.88
2022-10-24T00:15:51.715Z,37.94
2022-10-24T00:18:18.072Z,37.83
2022-10-24T00:20:44.434Z,37.87
2022-10-24T00:23:10.805Z,38.03
2022-10-24T00:25:37.142Z,38.13
2022-10-24T00:28:03.519Z,38.03
2022-10-24T00:30:29.868Z,37.82
2022-10-24T00:32:56.230Z,37.88
2022-10-24T00:35:22.578Z,37.92
2022-10-24T00:37:48.944Z,37.89
2022-10-24T00:40:15.297Z,37.94
2022-10-24T00:42:41.643Z,38.30
2022-10-24T00:45:07.989Z,38.30
2022-10-24T00:47:34.338Z,38.12
2022-10-24T00:50:00.721Z,38.25
2022-10-24T00:52:27.055Z,37.99
2022-10-24T00:54:53.396Z,38.14
2022-10-24T00:57:19.758Z,38.22
2022-10-24T00:59:46.103Z,38.31
2022-10-24T01:02:12.458Z,38.22
2022-10-24T01:04:38.784Z,38.47
2022-10-24T01:07:05.137Z,38.47
2022-10-24T01:09:31.468Z,38.13
2022-10-24T01:11:57.846Z,37.93
2022-10-24T01:14:24.194Z,38.09
2022-10-24T01:16:50.541Z,38.09
2022-10-24T01:19:16.882Z,38.30
2022-10-24T01:21:43.234Z,38.27
2022-10-24T01:24:09.576Z,38.16
2022-10-24T01:26:35.936Z,38.30
2022-10-24T01:29:02.275Z,38.27
2022-10-24T01:31:28.626Z,38.01
2022-10-24T01:33:54.970Z,38.55
2022-10-24T01:36:21.321Z,38.55
2022-10-24T01:38:47.658Z,38.16
2022-10-24T01:41:13.997Z,38.28
2022-10-24T01:43:40.403Z,38.31
2022-10-24T01:46:06.713Z,38.11
2022-10-24T01:48:33.056Z,38.06
2022-10-24T01:50:59.397Z,38.03
2022-10-24T01:53:25.751Z,38.12
2022-10-24T01:55:52.088Z,38.21
2022-10-24T01:58:18.434Z,38.05
2022-10-24T02:00:44.882Z,38.25
2022-10-24T02:03:11.215Z,38.36
2022-10-24T02:05:37.569Z,38.05
2022-10-24T02:08:03.944Z,37.99
2022-10-24T02:10:30.291Z,38.21
2022-10-24T02:12:56.671Z,38.25
2022-10-24T02:15:23.006Z,38.25
2022-10-24T02:17:49.354Z,38.21
2022-10-24T02:20:15.781Z,38.22
2022-10-24T02:22:42.126Z,38.15
2022-10-24T02:25:09.582Z,37.98
2022-10-24T02:27:35.927Z,38.22
2022-10-24T02:30:02.278Z,38.45
2022-10-24T02:32:28.645Z,38.15
2022-10-24T02:34:54.993Z,38.14
2022-10-24T02:37:21.342Z,38.05
2022-10-24T02:42:31.464Z,38.04
2022-10-24T02:44:57.801Z,38.02
2022-10-24T02:47:24.145Z,37.99
2022-10-24T02:49:50.498Z,38.04
2022-10-24T02:52:16.841Z,38.04
2022-10-24T02:54:43.180Z,38.05
2022-10-24T02:57:09.512Z,38.24
2022-10-24T02:59:35.858Z,38.15
2022-10-24T03:02:02.203Z,38.03
2022-10-24T03:04:28.569Z,38.05
2022-10-24T03:06:54.904Z,38.24
2022-10-24T03:09:21.278Z,38.09
2022-10-24T03:11:47.611Z,38.69
2022-10-24T03:14:13.946Z,38.69
2022-10-24T03:16:40.286Z,38.21
2022-10-24T03:19:06.614Z,38.11
2022-10-24T03:21:32.957Z,38.16
2022-10-24T03:23:59.382Z,38.15
2022-10-24T03:26:25.640Z,38.08
2022-10-24T03:28:51.979Z,38.08
2022-10-24T03:31:18.315Z,37.90
2022-10-24T03:33:44.661Z,38.09
2022-10-24T03:36:10.994Z,38.13
2022-10-24T03:38:37.343Z,38.08
2022-10-24T03:41:03.758Z,38.03
2022-10-24T03:43:30.051Z,38.12
2022-10-24T03:45:56.392Z,38.08
2022-10-24T03:48:22.773Z,38.11
2022-10-24T03:53:34.412Z,38.13
2022-10-24T03:56:00.835Z,38.03
2022-10-24T03:58:27.155Z,38.06
2022-10-24T04:00:53.555Z,37.99
2022-10-24T04:03:19.848Z,38.05
2022-10-24T04:05:46.202Z,38.04
2022-10-24T04:08:12.546Z,38.09
2022-10-24T04:10:38.889Z,38.12
2022-10-24T04:13:05.251Z,38.15
2022-10-24T04:15:31.597Z,37.99
2022-10-24T04:17:57.938Z,38.02
2022-10-24T04:20:24.269Z,38.00
2022-10-24T04:22:50.613Z,37.95
2022-10-24T04:25:16.959Z,37.96
2022-10-24T04:27:43.654Z,37.87
2022-10-24T04:30:15.519Z,37.88
2022-10-24T04:32:36.367Z,37.88
2022-10-24T04:35:02.709Z,37.88
2022-10-24T04:37:29.103Z,37.75
2022-10-24T04:39:55.442Z,37.85
2022-10-24T04:42:21.815Z,37.72
2022-10-24T04:44:48.146Z,37.84
2022-10-24T04:47:14.559Z,38.05
2022-10-24T04:49:40.939Z,38.03
2022-10-24T04:52:07.288Z,38.05
2022-10-24T04:54:33.629Z,38.04
2022-10-24T04:56:59.967Z,38.01
2022-10-24T04:59:26.304Z,38.03
2022-10-24T05:01:52.746Z,37.81
2022-10-24T05:04:19.003Z,37.80
2022-10-24T05:06:45.383Z,37.79
2022-10-24T05:09:11.717Z,37.84
2022-10-24T05:11:38.053Z,37.88
2022-10-24T05:14:04.395Z,37.87
2022-10-24T05:16:30.752Z,37.85
2022-10-24T05:18:57.097Z,37.83
2022-10-24T05:21:23.440Z,37.77
2022-10-24T05:23:49.770Z,37.81
2022-10-24T05:26:16.132Z,37.77
2022-10-24T05:28:42.471Z,37.66
2022-10-24T05:31:08.825Z,38.06
2022-10-24T05:33:35.180Z,38.06
2022-10-24T05:36:01.527Z,37.72
2022-10-24T05:38:27.863Z,37.89
2022-10-24T05:40:54.217Z,37.89
2022-10-24T05:43:20.553Z,37.75
2022-10-24T05:45:47.636Z,37.65
2022-10-24T05:48:13.917Z,37.54
2022-10-24T05:50:40.268Z,37.51
2022-10-24T05:53:06.602Z,37.34
2022-10-24T05:55:32.959Z,37.34
2022-10-24T05:57:59.302Z,37.62
2022-10-24T06:00:25.664Z,37.59
2022-10-24T06:02:52.023Z,37.55
2022-10-24T06:05:18.353Z,37.64
2022-10-24T06:07:44.951Z,37.69
2022-10-24T06:10:11.044Z,37.78
2022-10-24T06:12:37.388Z,37.86
2022-10-24T06:15:03.734Z,37.84
2022-10-24T06:17:30.085Z,37.73
2022-10-24T06:19:56.438Z,37.78
2022-10-24T06:22:22.775Z,37.78
2022-10-24T06:24:49.128Z,37.70
2022-10-24T06:27:15.539Z,37.61
2022-10-24T06:29:41.872Z,37.53
2022-10-24T06:32:10.410Z,37.23
2022-10-24T06:34:36.751Z,37.23
2022-10-24T06:37:03.086Z,38.01
2022-10-24T06:39:29.435Z,37.57
2022-10-24T06:41:58.055Z,37.75
2022-10-24T06:44:24.397Z,37.82
2022-10-24T06:46:50.731Z,37.74
2022-10-24T06:49:17.080Z,37.74
2022-10-24T06:51:43.414Z,37.91
2022-10-24T06:54:09.794Z,37.91
2022-10-24T06:56:36.142Z,38.24
2022-10-24T06:59:05.313Z,38.24
2022-10-24T07:01:31.775Z,37.66
2022-10-24T07:03:57.973Z,37.66
2022-10-24T07:06:24.440Z,37.77
2022-10-24T07:08:50.667Z,38.04
2022-10-24T07:11:17.009Z,38.04
2022-10-24T07:13:44.490Z,37.92
2022-10-24T07:16:09.784Z,39.00
2022-10-24T07:18:36.127Z,37.98
2022-10-24T07:21:02.479Z,37.59
2022-10-24T07:23:28.858Z,37.58
2022-10-24T07:25:55.199Z,37.58
2022-10-24T07:28:21.543Z,38.62
2022-10-24T07:30:47.880Z,38.09
2022-10-24T07:33:14.219Z,38.33
2022-10-24T07:35:40.568Z,37.84
2022-10-24T07:38:06.919Z,38.18
2022-10-24T07:40:33.265Z,37.93
2022-10-24T07:42:59.653Z,37.95
2022-10-24T07:45:26.012Z,37.95
2022-10-24T07:47:52.351Z,37.97
2022-10-24T07:50:18.715Z,37.71
2022-10-24T07:52:45.039Z,37.82
2022-10-24T07:55:11.383Z,37.82
2022-10-24T07:57:37.728Z,38.32
2022-10-24T08:00:04.080Z,38.32
2022-10-24T08:02:30.422Z,38.17
2022-10-24T08:04:56.775Z,38.00
2022-10-24T08:07:23.152Z,37.93
2022-10-24T08:09:49.483Z,37.87
2022-10-24T08:12:15.828Z,38.02
2022-10-24T08:14:42.167Z,37.96
2022-10-24T08:17:08.527Z,38.69
2022-10-24T08:19:34.950Z,38.43
2022-10-24T08:22:01.297Z,37.63
2022-10-24T08:24:27.630Z,37.55
2022-10-24T08:26:53.978Z,37.81
2022-10-24T08:29:20.308Z,37.81
2022-10-24T08:31:46.692Z,38.19
2022-10-24T08:34:13.032Z,38.00
2022-10-24T08:36:39.405Z,37.70
2022-10-24T08:39:05.746Z,38.01
2022-10-24T08:41:32.082Z,38.18
2022-10-24T08:43:58.460Z,37.88
2022-10-24T08:46:24.830Z,37.76
2022-10-24T08:48:51.157Z,37.94
2022-10-24T08:51:17.502Z,37.63
2022-10-24T08:53:43.835Z,37.56
2022-10-24T08:56:10.195Z,37.69
2022-10-24T08:58:36.548Z,37.69
2022-10-24T09:01:02.995Z,37.48
2022-10-24T09:03:54.607Z,37.70
2022-10-24T09:05:55.575Z,38.07
2022-10-24T09:08:23.904Z,37.96
2022-10-24T09:10:48.293Z,37.99
2022-10-24T09:13:14.638Z,38.41
2022-10-24T09:15:40.990Z,38.07
2022-10-24T09:18:07.321Z,38.62
2022-10-24T09:20:33.666Z,37.68
2022-10-24T09:23:00.050Z,37.90
2022-10-24T09:25:26.392Z,37.88
2022-10-24T09:27:52.725Z,38.02
2022-10-24T09:30:19.101Z,37.91
2022-10-24T09:32:45.420Z,37.79
2022-10-24T09:35:11.837Z,37.90
2022-10-24T09:37:42.760Z,37.79
2022-10-24T09:40:04.517Z,37.49
2022-10-24T09:42:30.924Z,37.75
2022-10-24T09:44:57.265Z,37.52
2022-10-24T09:47:23.620Z,37.48
2022-10-24T09:49:49.962Z,37.37
2022-10-24T09:52:16.298Z,37.57
2022-10-24T09:54:42.640Z,37.06
2022-10-24T09:57:09.062Z,37.01
2022-10-24T09:59:35.369Z,38.46
2022-10-24T10:02:01.810Z,37.36
2022-10-24T10:04:28.123Z,37.77
2022-10-24T10:06:54.503Z,37.60
2022-10-24T10:09:20.821Z,37.74
2022-10-24T10:12:00.722Z,37.88
2022-10-24T10:14:13.550Z,37.87
2022-10-24T10:16:39.892Z,37.87
2022-10-24T10:19:06.242Z,37.80
2022-10-24T10:21:32.586Z,37.82
2022-10-24T10:23:58.961Z,37.82
2022-10-24T10:26:25.304Z,37.38
2022-10-24T10:28:51.666Z,37.79
2022-10-24T10:31:18.024Z,37.90
2022-10-24T10:33:44.379Z,37.96
2022-10-24T10:36:10.733Z,37.95
2022-10-24T10:38:37.094Z,38.04
2022-10-24T10:41:03.449Z,37.88
2022-10-24T10:43:29.848Z,37.43
2022-10-24T10:45:56.312Z,37.84
2022-10-24T10:48:22.554Z,37.80
2022-10-24T10:50:48.957Z,37.81
2022-10-24T10:53:15.250Z,37.47
2022-10-24T10:55:42.802Z,37.92
2022-10-24T10:58:12.926Z,37.84
2022-10-24T11:00:34.296Z,37.60
2022-10-24T11:03:00.659Z,37.67
2022-10-24T11:05:27.951Z,37.85
2022-10-24T11:07:53.356Z,37.65
2022-10-24T11:10:19.708Z,38.20
2022-10-24T11:12:46.062Z,37.91
2022-10-24T11:15:12.486Z,38.24
2022-10-24T11:17:38.785Z,37.94
2022-10-24T11:20:05.179Z,37.97
2022-10-24T11:22:31.532Z,38.12
2022-10-24T11:24:57.935Z,38.08
2022-10-24T11:27:24.285Z,38.21
2022-10-24T11:29:50.624Z,38.16
2022-10-24T11:32:16.974Z,38.69
2022-10-24T11:34:45.795Z,38.45
2022-10-24T11:37:12.134Z,38.48
2022-10-24T11:39:39.454Z,38.37
2022-10-24T11:42:04.834Z,38.47
2022-10-24T11:44:31.205Z,38.55
2022-10-24T11:46:57.545Z,38.76
2022-10-24T11:49:23.885Z,38.40
2022-10-24T11:51:50.239Z,38.65
2022-10-24T11:54:16.588Z,38.66
2022-10-24T11:56:42.924Z,38.50
2022-10-24T11:59:09.273Z,38.77
2022-10-24T12:01:35.651Z,38.53
2022-10-24T12:04:01.967Z,38.56
2022-10-24T12:06:28.313Z,38.56
2022-10-24T12:08:56.712Z,38.79
2022-10-24T12:11:21.115Z,38.70
2022-10-24T12:13:47.467Z,38.67
2022-10-24T12:16:13.831Z,38.70
2022-10-24T12:18:40.171Z,38.75
2022-10-24T12:21:06.511Z,38.86
2022-10-24T12:23:32.865Z,38.81
2022-10-24T12:25:59.207Z,38.85
2022-10-24T12:28:25.560Z,38.49
2022-10-24T12:33:18.257Z,38.80
2022-10-24T12:35:44.597Z,38.83
2022-10-24T12:38:10.980Z,38.84
2022-10-24T12:40:37.317Z,38.88
2022-10-24T12:43:03.694Z,38.96
2022-10-24T12:45:30.036Z,39.07
2022-10-24T12:50:22.719Z,39.01
2022-10-24T12:52:49.245Z,39.04
2022-10-24T12:55:15.433Z,39.20
2022-10-24T12:57:41.779Z,39.30
2022-10-24T13:00:08.171Z,39.30
2022-10-24T13:02:34.534Z,39.09
2022-10-24T13:05:00.865Z,39.10
2022-10-24T13:07:27.182Z,39.11
2022-10-24T13:09:53.531Z,39.30
2022-10-24T13:12:19.878Z,39.14
2022-10-24T13:14:46.217Z,39.10
2022-10-24T13:17:12.565Z,39.20
2022-10-24T13:19:38.924Z,39.15
2022-10-24T13:22:05.271Z,39.25
2022-10-24T13:24:31.604Z,39.34
2022-10-24T13:26:57.946Z,39.34
2022-10-24T13:29:24.291Z,39.36
2022-10-24T13:31:50.642Z,39.40
2022-10-24T13:34:17.011Z,39.39
2022-10-24T13:36:43.352Z,39.30
2022-10-24T13:39:09.685Z,39.27
2022-10-24T13:41:36.044Z,39.27
2022-10-24T13:44:02.409Z,39.25
2022-10-24T13:46:28.831Z,39.39
2022-10-24T13:48:55.108Z,39.36
2022-10-24T13:51:21.469Z,39.42
2022-10-24T13:53:50.292Z,39.44
2022-10-24T13:56:16.628Z,39.33
2022-10-24T13:58:44.610Z,39.42
2022-10-24T14:01:09.368Z,39.47
2022-10-24T14:03:35.660Z,39.52
2022-10-24T14:06:02.008Z,39.42
2022-10-24T14:08:28.345Z,39.44
2022-10-24T14:10:54.712Z,39.62
2022-10-24T14:13:21.044Z,39.53
2022-10-24T14:15:47.386Z,39.76
2022-10-24T14:18:13.791Z,39.75
2022-10-24T14:20:40.075Z,39.58
2022-10-24T14:23:06.411Z,39.53
2022-10-24T14:25:32.754Z,39.65
2022-10-24T14:27:59.090Z,39.73
2022-10-24T14:30:25.436Z,39.78
2022-10-24T14:32:51.783Z,39.67
2022-10-24T14:35:18.127Z,39.66
2022-10-24T14:37:44.694Z,39.74
2022-10-24T14:40:10.830Z,39.63
2022-10-24T14:42:37.169Z,39.64
2022-10-24T14:45:03.524Z,39.74
2022-10-24T14:47:29.890Z,39.78
2022-10-24T14:49:56.232Z,39.82
2022-10-24T14:52:22.581Z,39.91
2022-10-24T14:54:48.921Z,39.67
2022-10-24T14:57:15.266Z,39.59
2022-10-24T14:59:41.632Z,39.64
2022-10-24T15:02:07.992Z,39.79
2022-10-24T15:04:34.336Z,39.64
2022-10-24T15:07:00.676Z,39.73
2022-10-24T15:09:27.020Z,39.59
2022-10-24T15:11:53.470Z,39.79
2022-10-24T15:14:19.815Z,39.60
2022-10-24T15:16:46.221Z,39.62
2022-10-24T15:19:12.504Z,39.79
2022-10-24T15:21:38.844Z,39.74
2022-10-24T15:24:05.175Z,39.72
2022-10-24T15:26:31.519Z,39.68
2022-10-24T15:28:57.859Z,39.77
2022-10-24T15:31:24.199Z,39.79
2022-10-24T15:33:50.542Z,39.86
2022-10-24T15:36:16.870Z,39.92
2022-10-24T15:38:43.263Z,39.77
2022-10-24T15:41:09.594Z,39.81
2022-10-24T15:43:35.940Z,39.72
2022-10-24T15:46:02.287Z,39.61
2022-10-24T15:48:28.626Z,39.18
2022-10-24T15:50:54.958Z,39.18
2022-10-24T15:53:21.304Z,39.77
2022-10-24T15:55:47.637Z,39.61
2022-10-24T15:58:14.005Z,39.75
2022-10-24T16:00:40.408Z,39.82
2022-10-24T16:03:06.688Z,39.85
2022-10-24T16:05:33.023Z,39.85
2022-10-24T16:07:59.372Z,39.85
2022-10-24T16:10:25.709Z,39.88
2022-10-24T16:12:52.051Z,39.92
2022-10-24T16:15:18.482Z,39.84
2022-10-24T16:17:45.059Z,39.88
2022-10-24T16:20:11.058Z,39.86
2022-10-24T16:22:37.408Z,39.84
2022-10-24T16:25:03.743Z,39.84
2022-10-24T16:27:30.088Z,39.76
2022-10-24T16:29:56.421Z,39.63
2022-10-24T16:32:22.772Z,39.77
2022-10-24T16:34:49.138Z,39.66
2022-10-24T16:37:15.478Z,39.72
2022-10-24T16:39:41.858Z,39.71
2022-10-24T16:42:08.194Z,39.69
2022-10-24T16:44:34.524Z,39.72
2022-10-24T16:47:00.872Z,39.71
2022-10-24T16:49:27.211Z,39.68
2022-10-24T16:51:53.552Z,39.73
2022-10-24T16:54:19.885Z,39.67
2022-10-24T16:56:49.788Z,39.62
2022-10-24T16:59:15.408Z,39.61
2022-10-24T17:01:39.020Z,39.59
2022-10-24T17:04:05.245Z,39.57
2022-10-24T17:06:31.588Z,39.57
2022-10-24T17:08:57.920Z,39.59
2022-10-24T17:11:44.371Z,39.54
2022-10-24T17:13:50.636Z,39.55
2022-10-24T17:16:16.979Z,39.52
2022-10-24T17:18:45.765Z,39.49
2022-10-24T17:21:09.660Z,39.53
2022-10-24T17:23:35.991Z,39.53
2022-10-24T17:26:02.338Z,39.54
2022-10-24T17:28:33.061Z,39.54
2022-10-24T17:30:55.022Z,39.56
2022-10-24T17:33:21.359Z,39.63
2022-10-24T17:35:47.699Z,39.63
2022-10-24T17:38:14.032Z,39.48
2022-10-24T17:40:40.394Z,39.54
2022-10-24T17:43:06.746Z,39.48
2022-10-24T17:45:33.069Z,39.49
2022-10-24T17:47:59.439Z,39.56
2022-10-24T17:50:25.777Z,39.48
2022-10-24T17:52:52.115Z,39.42
2022-10-24T17:55:34.365Z,39.45
2022-10-24T17:57:45.036Z,39.06
2022-10-24T18:00:11.133Z,39.06
2022-10-24T18:02:37.482Z,38.94
2022-10-24T18:05:03.820Z,38.94
2022-10-24T18:07:30.158Z,39.29
2022-10-24T18:09:56.500Z,39.66
2022-10-24T18:12:22.844Z,39.24
2022-10-24T18:14:49.238Z,39.29
2022-10-24T18:17:15.575Z,39.29
2022-10-24T18:19:41.930Z,39.26
2022-10-24T18:22:08.269Z,39.30
2022-10-24T18:24:34.601Z,39.25
2022-10-24T18:27:00.935Z,39.26
2022-10-24T18:29:29.422Z,39.32
2022-10-24T18:31:53.622Z,39.32
2022-10-24T18:34:19.959Z,39.87
2022-10-24T18:36:46.298Z,39.87
2022-10-24T18:39:12.681Z,39.04
2022-10-24T18:41:39.020Z,39.38
2022-10-24T18:44:05.359Z,39.38
2022-10-24T18:46:31.694Z,39.27
2022-10-24T18:48:58.035Z,39.26
2022-10-24T18:51:25.629Z,39.24
2022-10-24T18:53:50.765Z,39.27
2022-10-24T18:56:18.699Z,39.28
2022-10-24T18:58:43.441Z,39.25
2022-10-24T19:01:09.872Z,39.33
2022-10-24T19:03:36.128Z,39.35
2022-10-24T19:06:02.458Z,39.26
2022-10-24T19:08:28.803Z,39.55
2022-10-24T19:10:55.252Z,39.36
2022-10-24T19:13:21.482Z,39.35
2022-10-24T19:15:47.811Z,39.35
2022-10-24T19:18:14.163Z,39.38
2022-10-24T19:20:40.498Z,39.37
2022-10-24T19:23:06.841Z,39.25
2022-10-24T19:25:34.345Z,39.36
2022-10-24T19:27:59.548Z,39.39
2022-10-24T19:30:27.293Z,39.44
2022-10-24T19:32:52.230Z,39.39
2022-10-24T19:35:18.562Z,39.36
2022-10-24T19:37:45.271Z,39.36
2022-10-24T19:40:11.279Z,39.38
2022-10-24T19:42:37.624Z,39.35
2022-10-24T19:45:03.958Z,39.38
2022-10-24T19:47:30.296Z,39.37
2022-10-24T19:49:56.634Z,39.55
2022-10-24T19:52:22.981Z,39.67
2022-10-24T19:54:49.313Z,39.43
2022-10-24T19:57:15.684Z,39.47
2022-10-24T19:59:42.027Z,39.40
2022-10-24T20:02:08.360Z,39.81
2022-10-24T20:04:34.695Z,39.81
2022-10-24T20:07:01.036Z,39.54
2022-10-24T20:09:27.407Z,39.23
2022-10-24T20:11:53.746Z,39.41
2022-10-24T20:14:20.089Z,39.40
2022-10-24T20:16:46.437Z,39.38
2022-10-24T20:19:12.792Z,39.41
2022-10-24T20:21:39.138Z,38.84
2022-10-24T20:24:05.501Z,38.84
2022-10-24T20:26:31.837Z,39.35
2022-10-24T20:28:58.204Z,39.36
2022-10-24T20:31:24.584Z,39.37
2022-10-24T20:33:50.926Z,39.36
2022-10-24T20:36:17.265Z,39.50
2022-10-24T20:38:43.612Z,39.37
2022-10-24T20:41:09.960Z,39.37
2022-10-24T20:43:36.330Z,39.92
2022-10-24T20:46:02.679Z,39.92
2022-10-24T20:48:29.043Z,39.37
2022-10-24T20:50:55.389Z,39.22
2022-10-24T20:53:21.731Z,39.38
2022-10-24T20:55:48.073Z,39.35
2022-10-24T20:58:14.416Z,39.40
2022-10-24T21:03:07.097Z,39.39
2022-10-24T21:05:33.432Z,39.38
2022-10-24T21:07:59.798Z,39.41
2022-10-24T21:10:26.139Z,39.38
2022-10-24T21:12:52.811Z,39.40
2022-10-24T21:15:18.819Z,38.88
2022-10-24T21:17:45.551Z,38.88
2022-10-24T21:20:11.529Z,39.37
2022-10-24T21:22:37.864Z,39.35
2022-10-24T21:25:04.202Z,39.37
2022-10-24T21:27:30.543Z,39.37
2022-10-24T21:29:56.887Z,39.28
2022-10-24T21:32:23.222Z,39.32
2022-10-24T21:34:49.558Z,38.99
2022-10-24T21:37:15.898Z,39.16
2022-10-24T21:39:42.268Z,39.16
2022-10-24T21:42:08.607Z,39.30
2022-10-24T21:44:34.941Z,39.30
2022-10-24T21:47:01.315Z,39.30
2022-10-24T21:49:27.688Z,39.34
2022-10-24T21:51:54.019Z,39.32
2022-10-24T21:54:21.299Z,39.35
2022-10-24T21:56:46.694Z,39.37
2022-10-24T21:59:13.036Z,39.38
2022-10-24T22:01:39.472Z,39.36
2022-10-24T22:04:05.710Z,39.38
2022-10-24T22:06:32.072Z,39.31
2022-10-24T22:08:58.416Z,39.33
2022-10-24T22:11:24.758Z,39.59
2022-10-24T22:13:51.101Z,39.42
2022-10-24T22:16:17.432Z,39.31
2022-10-24T22:18:43.777Z,39.35
2022-10-24T22:21:10.143Z,39.31
2022-10-24T22:23:36.459Z,39.41
2022-10-24T22:26:02.790Z,39.27
2022-10-24T22:28:29.136Z,39.32
2022-10-24T22:30:55.469Z,39.09
2022-10-24T22:33:21.824Z,39.27
2022-10-24T22:35:48.167Z,39.27
2022-10-24T22:38:14.504Z,39.30
2022-10-24T22:40:40.901Z,39.90
2022-10-24T22:43:08.467Z,39.90
2022-10-24T22:45:33.520Z,39.51
2022-10-24T22:47:59.854Z,39.44
2022-10-24T22:50:26.205Z,39.69
2022-10-24T22:52:52.534Z,39.33
2022-10-24T22:55:18.873Z,39.11
2022-10-24T22:57:45.212Z,39.57
2022-10-24T23:02:53.817Z,39.33
2022-10-24T23:05:20.231Z,39.38
2022-10-24T23:07:46.813Z,39.42
2022-10-24T23:10:12.929Z,39.44
2022-10-24T23:12:39.276Z,39.35
2022-10-24T23:15:05.634Z,39.41
2022-10-24T23:17:31.975Z,39.38
2022-10-24T23:19:58.342Z,39.37
2022-10-24T23:22:24.728Z,39.39
2022-10-24T23:24:51.029Z,39.36
2022-10-24T23:27:17.370Z,39.37
2022-10-24T23:29:43.700Z,39.39
2022-10-24T23:32:10.043Z,39.51
2022-10-24T23:34:36.374Z,39.40
2022-10-24T23:37:02.828Z,39.58
2022-10-24T23:39:30.503Z,39.58
2022-10-24T23:41:55.501Z,39.38
2022-10-24T23:44:21.845Z,39.61
2022-10-24T23:46:48.184Z,39.61
2022-10-24T23:49:14.516Z,39.44
2022-10-24T23:51:40.864Z,39.41
2022-10-24T23:54:07.220Z,39.41
2022-10-24T23:56:33.564Z,39.45
2022-10-24T23:58:59.904Z,39.37
